Time;durP1;ratioP1;P1;durP2;ratioP2;P2;SDS_P1;SDS_P2;PMS_P1;PMS_P2;Temp;Humidity;BMP_temperature;BMP_pressure;BME280_temperature;BME280_humidity;BME280_pressure;Samples;Min_cycle;Max_cycle;Signal;HPM_P1;HPM_P2
2022/07/19 00:00:46;;;;;;;6.95;3.60;;;;;;;15.94;64.13;94163.47;5029751;28;20414;-43
2022/07/19 00:03:13;;;;;;;5.22;3.85;;;;;;;15.84;64.38;94134.03;5027658;28;20109;-42
2022/07/19 00:05:38;;;;;;;5.75;3.30;;;;;;;15.98;64.43;94160.31;5020860;28;20034;-42
2022/07/19 00:08:04;;;;;;;8.65;3.75;;;;;;;15.99;64.25;94156.22;5024164;28;20044;-42
2022/07/19 00:10:29;;;;;;;4.68;3.75;;;;;;;15.80;64.42;94155.97;5018414;28;20098;-43
2022/07/19 00:12:55;;;;;;;6.07;2.85;;;;;;;15.81;64.40;94165.78;5028302;28;20410;-42
2022/07/19 00:15:20;;;;;;;3.78;3.22;;;;;;;15.91;64.28;94166.69;5018748;28;20026;-42
2022/07/19 00:17:47;;;;;;;4.47;2.83;;;;;;;15.72;65.17;94166.44;5010130;28;20041;-42
2022/07/19 00:20:15;;;;;;;4.05;3.55;;;;;;;16.01;63.88;94164.00;5009659;28;20098;-43
2022/07/19 00:22:41;;;;;;;3.40;3.10;;;;;;;16.05;63.79;94153.22;5009621;28;20049;-44
2022/07/19 00:25:07;;;;;;;3.53;2.90;;;;;;;16.05;63.40;94165.09;5009725;28;20022;-42
2022/07/19 00:27:32;;;;;;;4.50;2.90;;;;;;;15.92;63.44;94157.75;5009715;28;20026;-43
2022/07/19 00:29:58;;;;;;;2.40;2.20;;;;;;;15.90;63.99;94162.41;4992303;28;20388;-41
2022/07/19 00:32:24;;;;;;;3.75;3.10;;;;;;;15.81;63.63;94137.94;5009531;28;20034;-41
2022/07/19 00:34:49;;;;;;;5.93;2.67;;;;;;;15.82;64.10;94159.69;5009532;28;20025;-42
2022/07/19 00:37:15;;;;;;;4.00;3.58;;;;;;;15.89;63.92;94155.38;5028848;28;20040;-42
2022/07/19 00:39:40;;;;;;;4.65;2.70;;;;;;;15.53;65.05;94155.75;5029165;28;20026;-42
2022/07/19 00:42:06;;;;;;;3.47;3.17;;;;;;;15.44;65.59;94156.34;5029615;28;20038;-42
2022/07/19 00:44:32;;;;;;;4.65;3.03;;;;;;;15.43;65.59;94154.09;5029360;28;20421;-42
2022/07/19 00:46:57;;;;;;;4.72;3.30;;;;;;;15.31;65.69;94147.50;5029317;28;20405;-42
2022/07/19 00:49:23;;;;;;;4.43;2.95;;;;;;;15.27;66.13;94158.97;5029194;28;20028;-42
2022/07/19 00:51:52;;;;;;;3.33;3.00;;;;;;;15.24;65.98;94154.56;5029086;28;20037;-41
2022/07/19 00:54:19;;;;;;;4.93;3.00;;;;;;;15.25;66.33;94153.25;5029376;28;20077;-40
2022/07/19 00:56:48;;;;;;;5.10;3.15;;;;;;;15.38;66.09;94155.03;5027655;28;20051;-41
2022/07/19 00:59:14;;;;;;;3.85;2.78;;;;;;;15.36;66.21;94152.84;5028905;28;20029;-41
2022/07/19 01:01:40;;;;;;;5.80;3.20;;;;;;;15.26;66.56;94140.81;5028735;28;20029;-41
2022/07/19 01:04:05;;;;;;;4.38;3.53;;;;;;;15.16;66.66;94148.25;5029170;28;20085;-41
2022/07/19 01:06:31;;;;;;;7.03;3.70;;;;;;;14.91;67.11;94125.94;5028746;28;20500;-40
2022/07/19 01:08:56;;;;;;;4.70;3.20;;;;;;;15.04;67.21;94147.97;5050792;27;20029;-41
2022/07/19 01:11:22;;;;;;;4.80;2.85;;;;;;;15.12;66.74;94145.13;5028775;28;20029;-41
2022/07/19 01:13:48;;;;;;;6.28;3.03;;;;;;;14.99;66.96;94146.09;5027658;28;20029;-40
2022/07/19 01:16:14;;;;;;;4.55;3.03;;;;;;;15.02;66.49;94147.78;5029084;28;20029;-41
2022/07/19 01:18:40;;;;;;;3.45;2.65;;;;;;;14.92;66.64;94152.44;5028622;28;20505;-41
2022/07/19 01:21:07;;;;;;;4.22;2.70;;;;;;;15.08;66.18;94148.31;5027659;28;20025;-41
2022/07/19 01:23:33;;;;;;;2.75;2.42;;;;;;;14.93;65.97;94151.13;5028992;28;20036;-41
2022/07/19 01:25:58;;;;;;;2.42;2.22;;;;;;;14.77;66.64;94148.97;5029112;28;20029;-42
2022/07/19 01:28:24;;;;;;;3.38;2.72;;;;;;;14.68;66.41;94133.59;5028844;28;20573;-42
2022/07/19 01:30:50;;;;;;;3.22;2.70;;;;;;;14.78;66.87;94139.31;5028900;28;20036;-42
2022/07/19 01:33:16;;;;;;;2.47;2.20;;;;;;;14.81;66.85;94152.81;5028723;28;20036;-42
2022/07/19 01:35:42;;;;;;;4.45;2.42;;;;;;;14.72;66.88;94147.13;5028862;28;20023;-40
2022/07/19 01:38:07;;;;;;;3.55;2.10;;;;;;;14.69;66.81;94148.22;5028598;28;20032;-42
2022/07/19 01:40:33;;;;;;;2.97;2.67;;;;;;;14.67;67.51;94148.03;5022661;28;20398;-39
2022/07/19 01:42:59;;;;;;;4.15;2.50;;;;;;;14.58;67.39;94141.03;5008600;28;20042;-40
2022/07/19 01:45:24;;;;;;;2.97;2.10;;;;;;;14.30;67.90;94135.69;5012265;28;20029;-43
2022/07/19 01:47:50;;;;;;;2.42;2.25;;;;;;;14.42;67.81;94142.34;5028539;28;20496;-42
2022/07/19 01:50:17;;;;;;;3.80;2.22;;;;;;;14.46;67.96;94144.75;5028060;28;20048;-41
2022/07/19 01:52:43;;;;;;;32.72;15.10;;;;;;;14.49;67.95;94147.13;5028370;28;20086;-41
2022/07/19 01:55:09;;;;;;;6.93;6.50;;;;;;;14.60;67.17;94140.44;5028031;28;20514;-41
2022/07/19 01:57:34;;;;;;;11.55;10.70;;;;;;;14.55;66.75;94147.72;5028337;28;20155;-41
2022/07/19 02:00:00;;;;;;;3.97;3.67;;;;;;;14.49;67.15;94146.41;5027920;28;20510;-41
2022/07/19 02:02:25;;;;;;;7.18;6.72;;;;;;;14.54;66.70;94151.03;5027540;28;20052;-41
2022/07/19 02:04:51;;;;;;;3.10;2.78;;;;;;;14.38;67.08;94147.53;5027946;28;20410;-41
2022/07/19 02:07:16;;;;;;;6.07;4.60;;;;;;;14.21;67.99;94145.28;5010573;28;20081;-41
2022/07/19 02:09:43;;;;;;;10.90;10.15;;;;;;;14.03;67.93;94117.91;5026733;28;20530;-41
2022/07/19 02:12:08;;;;;;;3.55;2.45;;;;;;;14.20;67.82;94151.41;5027905;28;20502;-41
2022/07/19 02:14:33;;;;;;;3.28;2.88;;;;;;;14.08;68.10;94151.03;5027684;28;20022;-41
2022/07/19 02:16:59;;;;;;;13.50;12.13;;;;;;;14.04;68.78;94149.91;5028126;28;20079;-40
2022/07/19 02:19:24;;;;;;;3.65;3.22;;;;;;;14.02;69.26;94144.16;5027608;28;20056;-39
2022/07/19 02:21:50;;;;;;;10.43;3.00;;;;;;;14.06;69.28;94142.50;5028060;28;20021;-40
2022/07/19 02:24:15;;;;;;;3.65;2.60;;;;;;;14.10;68.69;94139.34;5027965;28;20029;-39
2022/07/19 02:26:41;;;;;;;7.88;3.00;;;;;;;14.04;68.59;94141.56;5027581;28;20074;-39
2022/07/19 02:29:06;;;;;;;4.18;2.35;;;;;;;14.13;68.23;94149.34;5027942;28;20025;-39
2022/07/19 02:31:32;;;;;;;3.40;3.10;;;;;;;14.01;68.73;94151.75;5027888;28;20026;-39
2022/07/19 02:33:58;;;;;;;5.35;2.78;;;;;;;14.17;67.77;94144.91;5027943;28;20416;-40
2022/07/19 02:36:23;;;;;;;2.33;2.13;;;;;;;14.17;67.77;94144.91;5027610;28;20025;-41
2022/07/19 02:38:49;;;;;;;3.00;2.58;;;;;;;14.08;67.92;94151.03;5027610;28;20037;-41
2022/07/19 02:41:15;;;;;;;2.50;2.25;;;;;;;13.88;68.16;94143.59;5027830;28;20036;-41
2022/07/19 02:43:40;;;;;;;3.30;2.45;;;;;;;13.91;67.70;94155.63;5027759;28;20083;-40
2022/07/19 02:46:06;;;;;;;2.47;2.22;;;;;;;13.72;67.85;94136.56;5027340;28;20403;-40
2022/07/19 02:48:31;;;;;;;3.45;3.00;;;;;;;14.09;67.23;94152.53;5027629;28;20032;-41
2022/07/19 02:50:57;;;;;;;2.42;2.10;;;;;;;14.21;66.31;94155.66;5027335;28;20018;-40
2022/07/19 02:53:23;;;;;;;5.10;2.72;;;;;;;14.06;66.92;94150.84;5027308;28;20038;-41
2022/07/19 02:55:48;;;;;;;4.80;2.60;;;;;;;13.91;66.78;94161.19;5027299;28;20026;-41
2022/07/19 02:58:14;;;;;;;4.07;2.90;;;;;;;14.07;67.43;94165.47;5027308;28;20639;-40
2022/07/19 03:00:39;;;;;;;6.50;2.90;;;;;;;13.98;66.72;94150.09;5027039;28;20037;-40
2022/07/19 03:05:49;;;;;;;10.25;3.72;;;;;;;13.71;68.05;94162.09;5027055;28;20445;-40
2022/07/19 03:08:15;;;;;;;4.45;3.22;;;;;;;13.61;68.35;94164.66;5025530;28;20030;-40
2022/07/19 03:10:40;;;;;;;4.25;2.90;;;;;;;13.56;68.10;94160.00;5026940;28;20041;-42
2022/07/19 03:13:06;;;;;;;4.38;3.08;;;;;;;13.60;68.33;94169.47;5027355;28;20025;-41
2022/07/19 03:15:31;;;;;;;3.40;3.00;;;;;;;13.53;68.66;94166.69;5026995;28;20022;-42
2022/07/19 03:17:57;;;;;;;4.55;2.88;;;;;;;13.62;68.27;94157.81;5027305;28;20028;-41
2022/07/19 03:20:22;;;;;;;2.90;2.25;;;;;;;13.35;68.77;94171.25;5026854;28;20026;-41
2022/07/19 03:22:48;;;;;;;3.10;2.65;;;;;;;13.29;68.86;94173.44;5030389;28;20029;-40
2022/07/19 03:25:13;;;;;;;4.43;2.63;;;;;;;13.56;68.35;94180.19;5030435;28;20028;-40
2022/07/19 03:27:39;;;;;;;4.07;2.42;;;;;;;13.45;69.02;94177.75;5030658;28;20105;-40
2022/07/19 03:30:06;;;;;;;10.23;3.15;;;;;;;13.60;68.46;94171.47;5030679;28;20018;-41
2022/07/19 03:32:31;;;;;;;3.95;2.85;;;;;;;13.27;68.93;94155.88;5030515;28;20033;-40
2022/07/19 03:34:57;;;;;;;2.80;2.60;;;;;;;13.34;69.36;94171.81;5029400;28;20500;-40
2022/07/19 03:37:22;;;;;;;2.63;2.20;;;;;;;13.49;68.11;94149.66;5030566;28;20086;-40
2022/07/19 03:39:48;;;;;;;3.42;2.08;;;;;;;13.62;67.52;94177.25;5030458;28;20105;-40
2022/07/19 03:42:13;;;;;;;8.88;2.75;;;;;;;13.50;68.14;94187.94;5029439;28;20513;-41
2022/07/19 03:44:39;;;;;;;11.50;3.20;;;;;;;13.57;68.53;94181.69;5029278;28;20034;-41
2022/07/19 03:47:04;;;;;;;4.93;2.60;;;;;;;13.53;68.22;94186.09;5030370;28;20032;-41
2022/07/19 03:49:30;;;;;;;4.00;2.70;;;;;;;13.40;68.65;94166.81;5030283;28;20539;-41
2022/07/19 03:51:55;;;;;;;6.68;6.07;;;;;;;13.48;69.08;94175.91;5029911;28;20026;-42
2022/07/19 03:54:21;;;;;;;2.53;2.33;;;;;;;13.45;69.17;94172.19;5030233;28;20078;-42
2022/07/19 03:56:46;;;;;;;3.22;2.47;;;;;;;13.65;68.50;94176.88;5030113;28;20611;-43
2022/07/19 03:59:12;;;;;;;11.75;2.60;;;;;;;13.47;69.03;94172.38;5029904;28;20413;-42
2022/07/19 04:01:37;;;;;;;5.10;2.75;;;;;;;13.57;68.75;94192.03;5030079;28;20025;-42
2022/07/19 04:04:04;;;;;;;13.85;2.70;;;;;;;13.67;68.69;94182.63;5029370;28;20478;-42
2022/07/19 04:06:30;;;;;;;6.30;2.50;;;;;;;13.71;68.73;94192.63;5029942;28;20025;-42
2022/07/19 04:08:55;;;;;;;8.77;3.00;;;;;;;13.68;69.11;94197.97;5029187;28;20049;-42
2022/07/19 04:11:21;;;;;;;9.73;3.08;;;;;;;13.69;68.69;94174.47;5030023;28;20028;-41
2022/07/19 04:13:46;;;;;;;4.03;3.35;;;;;;;13.82;68.90;94192.28;5029709;28;20018;-41
2022/07/19 04:16:11;;;;;;;4.05;3.30;;;;;;;13.79;69.26;94188.56;5029920;28;20014;-41
2022/07/19 04:18:38;;;;;;;4.85;3.47;;;;;;;13.65;70.03;94198.31;5029550;28;20014;-41
2022/07/19 04:21:04;;;;;;;5.82;3.38;;;;;;;13.63;71.13;94196.13;5028820;28;20060;-41
2022/07/19 04:23:30;;;;;;;6.88;3.72;;;;;;;13.88;70.21;94195.63;5029819;28;20112;-41
2022/07/19 04:25:55;;;;;;;4.68;3.65;;;;;;;13.96;70.29;94194.34;5029455;28;20104;-41
2022/07/19 04:28:21;;;;;;;5.15;3.70;;;;;;;14.01;70.48;94184.34;5029529;28;20029;-39
2022/07/19 04:30:46;;;;;;;4.43;3.88;;;;;;;14.00;70.76;94189.16;5029385;28;20030;-39
2022/07/19 04:33:16;;;;;;;4.03;3.63;;;;;;;14.04;70.88;94186.75;5029097;28;20013;-39
2022/07/19 04:35:42;;;;;;;4.32;3.92;;;;;;;14.09;71.38;94187.88;5029715;28;20033;-40
2022/07/19 04:38:07;;;;;;;5.32;4.35;;;;;;;14.20;71.37;94181.97;5029234;28;20021;-39
2022/07/19 04:40:33;;;;;;;6.80;4.30;;;;;;;14.26;71.28;94185.28;5029071;28;20028;-40
2022/07/19 04:42:58;;;;;;;6.30;4.20;;;;;;;14.21;72.10;94175.09;5015605;28;20040;-40
2022/07/19 04:45:24;;;;;;;6.90;4.28;;;;;;;14.41;71.42;94182.53;5010809;28;20082;-40
2022/07/19 04:47:49;;;;;;;4.43;4.03;;;;;;;14.47;71.61;94188.63;5029477;28;20044;-41
2022/07/19 04:50:15;;;;;;;9.48;4.80;;;;;;;14.58;71.45;94185.47;5028088;28;20482;-39
2022/07/19 04:52:40;;;;;;;8.50;4.72;;;;;;;14.58;71.25;94179.91;5008515;28;20022;-39
2022/07/19 04:55:06;;;;;;;6.15;4.35;;;;;;;14.74;71.18;94184.19;5009556;28;20117;-40
2022/07/19 04:57:32;;;;;;;7.07;4.57;;;;;;;14.81;71.92;94191.03;5028403;28;20025;-40
2022/07/19 04:59:57;;;;;;;5.03;4.43;;;;;;;14.86;71.92;94188.03;5029159;28;20022;-40
2022/07/19 05:02:23;;;;;;;5.03;4.40;;;;;;;14.91;70.92;94189.88;5028821;28;20032;-39
2022/07/19 05:21:54;;;;;;;6.88;4.65;;;;;;;16.18;68.64;94184.31;5063854;28;20623;-41
2022/07/19 05:24:19;;;;;;;37.60;7.65;;;;;;;16.19;68.27;94180.22;5063972;28;20481;-41
2022/07/19 05:26:45;;;;;;;13.98;5.20;;;;;;;16.17;69.01;94176.53;5064212;28;20021;-41
2022/07/19 05:29:11;;;;;;;12.32;4.53;;;;;;;16.22;69.56;94181.84;5054647;28;20458;-41
2022/07/19 05:31:37;;;;;;;7.80;4.68;;;;;;;16.22;70.21;94175.56;5062660;28;20039;-41
2022/07/19 05:34:02;;;;;;;4.72;3.33;;;;;;;16.34;70.01;94180.13;5053042;28;20025;-41
2022/07/19 05:36:28;;;;;;;6.63;3.75;;;;;;;16.41;68.82;94175.78;5043626;28;20584;-41
2022/07/19 05:38:55;;;;;;;6.38;3.40;;;;;;;16.50;69.22;94175.19;5044198;28;20021;-40
2022/07/19 05:41:21;;;;;;;7.18;3.10;;;;;;;16.59;68.90;94180.84;5052212;28;20096;-41
2022/07/19 05:43:48;;;;;;;7.40;3.50;;;;;;;16.63;68.35;94174.88;5055011;28;20032;-41
2022/07/19 05:46:13;;;;;;;5.10;3.17;;;;;;;16.61;67.74;94163.56;5044527;28;20025;-40
2022/07/19 05:48:39;;;;;;;4.43;3.30;;;;;;;16.73;67.56;94169.41;5043571;28;20509;-41
2022/07/19 05:51:04;;;;;;;3.33;3.03;;;;;;;16.81;67.29;94178.41;5042247;28;20036;-40
2022/07/19 05:53:30;;;;;;;3.70;2.70;;;;;;;16.95;65.85;94166.41;5049267;28;20033;-40
2022/07/19 05:55:56;;;;;;;7.32;2.70;;;;;;;17.07;65.91;94175.00;5043403;28;20395;-40
2022/07/19 05:58:24;;;;;;;3.17;2.78;;;;;;;17.15;65.96;94181.97;5043604;28;20017;-40
2022/07/19 06:03:34;;;;;;;4.40;2.75;;;;;;;17.13;64.06;94167.16;5043720;28;20059;-40
2022/07/19 06:05:59;;;;;;;4.25;2.55;;;;;;;17.41;63.88;94175.00;5046199;28;20470;-40
2022/07/19 06:08:25;;;;;;;3.25;2.60;;;;;;;17.39;64.43;94178.34;5054200;28;20040;-40
2022/07/19 06:10:50;;;;;;;2.65;2.30;;;;;;;17.34;64.01;94181.41;5044022;28;20014;-41
2022/07/19 06:13:16;;;;;;;6.15;2.65;;;;;;;17.37;63.47;94174.66;5051200;28;20025;-41
2022/07/19 06:15:41;;;;;;;5.68;2.78;;;;;;;17.57;64.75;94169.97;5044654;28;20500;-41
2022/07/19 06:18:07;;;;;;;5.32;2.85;;;;;;;17.69;63.72;94171.72;5055950;28;20021;-41
2022/07/19 06:20:33;;;;;;;8.88;2.63;;;;;;;17.85;64.46;94166.63;5046194;28;20136;-41
2022/07/19 06:22:58;;;;;;;6.47;2.78;;;;;;;17.97;62.64;94170.38;5040544;28;20082;-40
2022/07/19 06:25:24;;;;;;;3.63;2.95;;;;;;;18.06;61.10;94169.72;5049841;28;20118;-40
2022/07/19 06:27:49;;;;;;;2.70;2.42;;;;;;;18.30;59.91;94168.75;5049635;28;20021;-40
2022/07/19 06:30:15;;;;;;;5.22;2.17;;;;;;;18.35;59.87;94162.16;5047133;28;20022;-40
2022/07/19 06:32:40;;;;;;;4.20;2.70;;;;;;;18.35;59.18;94169.81;5034287;28;20025;-40
2022/07/19 06:35:06;;;;;;;4.07;2.40;;;;;;;18.27;59.46;94155.22;5048738;28;20028;-40
2022/07/19 06:37:32;;;;;;;7.75;2.80;;;;;;;18.53;59.80;94158.00;5049644;28;20028;-40
2022/07/19 06:39:57;;;;;;;2.42;2.22;;;;;;;18.64;58.81;94160.25;5049355;28;20409;-40
2022/07/19 06:42:23;;;;;;;18.08;2.95;;;;;;;18.75;60.62;94170.84;5042500;28;20124;-40
2022/07/19 06:44:48;;;;;;;3.13;2.00;;;;;;;18.92;59.70;94167.22;5042146;28;20025;-40
2022/07/19 06:47:14;;;;;;;7.50;2.28;;;;;;;19.18;56.76;94160.03;5035866;28;20033;-40
2022/07/19 06:49:39;;;;;;;6.13;2.25;;;;;;;19.27;55.22;94171.25;5036935;28;20104;-40
2022/07/19 06:52:05;;;;;;;5.55;2.03;;;;;;;19.27;55.07;94154.44;5048795;28;20663;-40
2022/07/19 06:54:30;;;;;;;4.28;1.70;;;;;;;19.43;52.43;94155.63;5045845;28;20486;-39
2022/07/19 06:56:56;;;;;;;3.33;1.88;;;;;;;19.46;53.53;94156.50;5043549;28;20025;-40
2022/07/19 06:59:21;;;;;;;7.80;2.67;;;;;;;19.48;55.27;94160.19;5040761;28;20032;-40
2022/07/19 07:01:47;;;;;;;2.03;1.85;;;;;;;19.70;53.73;94160.31;5044072;28;20036;-40
2022/07/19 07:04:12;;;;;;;1.90;1.80;;;;;;;19.66;53.73;94161.50;5047475;28;20577;-40
2022/07/19 07:06:38;;;;;;;1.60;1.50;;;;;;;19.71;52.89;94161.81;5037982;28;20471;-40
2022/07/19 07:09:04;;;;;;;3.88;1.98;;;;;;;19.58;53.81;94158.13;5027438;28;20033;-40
2022/07/19 07:11:29;;;;;;;3.00;2.13;;;;;;;19.76;54.35;94161.50;5059502;28;20028;-38
2022/07/19 07:13:55;;;;;;;3.53;1.85;;;;;;;19.89;53.82;94155.41;5047136;28;20082;-38
2022/07/19 07:16:20;;;;;;;2.30;1.55;;;;;;;20.05;51.83;94139.00;5047469;28;20513;-38
2022/07/19 07:18:46;;;;;;;5.60;2.03;;;;;;;20.20;51.58;94159.06;5048756;28;20021;-38
2022/07/19 07:21:11;;;;;;;2.53;2.25;;;;;;;20.22;51.29;94144.44;5044494;28;20041;-40
2022/07/19 07:23:37;;;;;;;11.35;2.08;;;;;;;20.46;52.40;94148.16;5039202;28;20108;-40
2022/07/19 07:26:02;;;;;;;2.35;1.83;;;;;;;20.61;51.21;94145.75;5036416;28;20551;-40
2022/07/19 07:28:28;;;;;;;5.22;1.58;;;;;;;20.73;50.39;94140.94;5038905;28;20029;-40
2022/07/19 07:30:54;;;;;;;2.25;2.05;;;;;;;20.99;50.18;94142.69;5036784;28;20029;-39
2022/07/19 07:33:19;;;;;;;2.13;1.80;;;;;;;21.36;47.91;94136.69;5037196;28;20103;-40
2022/07/19 07:35:45;;;;;;;11.63;1.80;;;;;;;21.99;46.24;94133.75;5036995;28;20114;-39
2022/07/19 07:38:10;;;;;;;2.85;1.65;;;;;;;22.77;43.88;94140.69;5038930;28;20076;-40
2022/07/19 07:40:36;;;;;;;2.35;1.65;;;;;;;23.67;42.32;94138.91;5034810;28;20022;-39
2022/07/19 07:43:02;;;;;;;4.70;1.65;;;;;;;24.07;37.74;94136.28;5036877;28;20021;-37
2022/07/19 07:45:31;;;;;;;1.67;1.58;;;;;;;24.52;35.89;94136.56;5038108;28;20046;-38
2022/07/19 07:47:57;;;;;;;1.98;1.50;;;;;;;25.14;35.53;94130.66;5041531;28;20445;-39
2022/07/19 07:50:22;;;;;;;3.05;1.50;;;;;;;25.88;35.03;94127.97;5039020;28;20025;-39
2022/07/19 07:52:48;;;;;;;3.25;1.40;;;;;;;26.06;34.25;94139.44;5028215;28;20029;-38
2022/07/19 07:55:13;;;;;;;2.17;1.67;;;;;;;26.07;33.77;94129.56;5028493;28;20039;-39
2022/07/19 07:57:39;;;;;;;3.75;1.40;;;;;;;26.58;32.40;94133.41;5028563;28;20021;-38
2022/07/19 08:00:06;;;;;;;10.98;1.73;;;;;;;27.50;32.87;94136.06;5028403;28;20493;-40
2022/07/19 08:02:33;;;;;;;1.40;1.30;;;;;;;27.97;30.90;94133.78;5028240;28;20022;-39
2022/07/19 08:04:58;;;;;;;2.35;1.40;;;;;;;27.96;31.03;94137.25;5026830;28;20474;-38
2022/07/19 08:07:24;;;;;;;1.75;1.40;;;;;;;28.33;30.84;94135.19;5037728;28;20064;-40
2022/07/19 08:09:49;;;;;;;2.03;1.30;;;;;;;28.72;31.04;94131.03;5035789;28;20022;-39
2022/07/19 08:12:15;;;;;;;3.05;1.60;;;;;;;29.28;29.69;94124.56;5037147;28;20029;-40
2022/07/19 08:14:40;;;;;;;3.13;1.67;;;;;;;29.82;29.25;94122.84;5040940;28;20104;-39
2022/07/19 08:17:06;;;;;;;2.00;1.38;;;;;;;29.49;28.53;94125.97;5038412;28;20409;-40
2022/07/19 08:19:31;;;;;;;1.90;1.50;;;;;;;29.73;26.37;94121.09;5043098;28;20048;-39
2022/07/19 08:21:57;;;;;;;3.95;1.70;;;;;;;30.46;28.04;94124.91;5044772;28;20044;-40
2022/07/19 08:24:22;;;;;;;2.97;1.75;;;;;;;30.89;25.79;94121.22;5045166;28;20024;-40
2022/07/19 08:26:47;;;;;;;1.60;1.50;;;;;;;31.55;25.41;94130.19;5045521;28;20521;-40
2022/07/19 08:29:13;;;;;;;3.58;2.13;;;;;;;31.24;26.65;94122.91;5044997;28;20841;-39
2022/07/19 08:31:38;;;;;;;8.30;2.25;;;;;;;30.35;27.66;94128.13;5036449;28;20053;-41
2022/07/19 08:34:04;;;;;;;4.35;1.75;;;;;;;29.85;26.58;94122.25;5033058;28;20032;-41
2022/07/19 08:36:30;;;;;;;2.95;1.75;;;;;;;29.82;27.44;94134.25;5033818;28;20101;-41
2022/07/19 08:38:55;;;;;;;7.85;2.15;;;;;;;30.22;28.16;94123.41;5032202;28;20052;-41
2022/07/19 08:41:21;;;;;;;2.70;1.63;;;;;;;29.93;27.45;94116.81;5041659;28;20489;-41
2022/07/19 08:43:51;;;;;;;1.45;1.35;;;;;;;30.20;27.50;94120.50;5046667;28;20473;-41
2022/07/19 08:46:19;;;;;;;1.70;1.50;;;;;;;31.26;27.04;94123.69;5047340;28;20040;-41
2022/07/19 08:48:45;;;;;;;;;;;;;;;30.51;26.88;94122.94;5048338;28;20028;-42
2022/07/19 08:51:10;;;;;;;1.40;1.30;;;;;;;29.87;27.86;94119.47;5046446;28;20391;-41
2022/07/19 08:53:40;;;;;;;2.28;1.35;;;;;;;30.70;27.41;94116.38;5046464;28;20453;-41
2022/07/19 08:57:56;;;;;;;1.38;1.23;;;;;;;30.43;26.19;94117.00;5047390;28;20028;-41
2022/07/19 08:58:51;;;;;;;1.58;1.48;;;;;;;30.43;29.77;94119.84;5046300;28;20599;-40
2022/07/19 09:01:17;;;;;;;5.38;1.67;;;;;;;31.43;26.67;94122.03;5042978;28;20112;-42
2022/07/19 09:04:15;;;;;;;2.50;1.58;;;;;;;31.60;24.57;94123.19;5034464;28;20672;-40
2022/07/19 09:06:42;;;;;;;4.47;1.50;;;;;;;31.44;25.21;94123.50;5038170;28;20033;-40
2022/07/19 09:09:08;;;;;;;1.60;1.50;;;;;;;32.56;24.10;94119.88;5029060;28;20073;-42
2022/07/19 09:11:48;;;;;;;1.65;1.55;;;;;;;32.13;24.61;94123.88;5035211;28;20505;-42
2022/07/19 09:14:16;;;;;;;1.38;1.27;;;;;;;33.01;23.46;94126.59;5044408;28;20044;-41
2022/07/19 09:17:20;;;;;;;1.60;1.47;;;;;;;33.86;21.24;94118.22;5040110;28;20033;-41
2022/07/19 09:19:47;;;;;;;1.50;1.35;;;;;;;33.25;22.03;94116.34;5027055;28;20026;-42
2022/07/19 09:22:18;;;;;;;2.45;1.80;;;;;;;32.12;23.19;94113.09;5004597;28;20653;-41
2022/07/19 09:24:49;;;;;;;2.33;1.40;;;;;;;30.86;26.13;94119.72;5020362;28;20425;-41
2022/07/19 09:27:22;;;;;;;2.35;1.80;;;;;;;29.97;25.30;94116.22;5046866;28;20482;-42
2022/07/19 09:29:56;;;;;;;3.33;1.52;;;;;;;29.78;26.41;94108.47;5046620;28;20025;-41
2022/07/19 09:32:24;;;;;;;1.83;1.63;;;;;;;29.70;26.66;94100.38;5046842;28;20033;-41
2022/07/19 09:34:54;;;;;;;5.15;1.52;;;;;;;29.94;28.64;94106.88;5046156;28;20029;-41
2022/07/19 09:37:28;;;;;;;2.45;1.50;;;;;;;29.82;26.32;94111.47;5045505;28;20044;-41
2022/07/19 09:40:08;;;;;;;2.78;2.10;;;;;;;29.57;27.33;94104.22;5046371;28;20021;-42
2022/07/19 09:42:44;;;;;;;2.88;1.50;;;;;;;29.82;27.35;94105.78;5044632;28;20029;-41
2022/07/19 09:45:14;;;;;;;4.32;1.75;;;;;;;30.16;27.82;94108.97;5027387;28;20089;-42
2022/07/19 09:47:41;;;;;;;2.97;1.58;;;;;;;31.30;26.64;94109.53;5038840;28;20463;-42
2022/07/19 09:50:14;;;;;;;2.17;1.60;;;;;;;31.52;23.35;94108.69;5028431;28;20036;-42
2022/07/19 09:52:41;;;;;;;3.95;1.40;;;;;;;31.84;23.60;94106.66;5037781;28;20669;-43
2022/07/19 09:55:08;;;;;;;1.50;1.38;;;;;;;32.47;25.24;94095.38;5044001;28;20033;-42
2022/07/19 09:57:36;;;;;;;2.50;1.40;;;;;;;32.86;23.87;94106.22;5041171;28;20082;-42
2022/07/19 10:00:06;;;;;;;1.90;1.40;;;;;;;32.97;23.25;94109.28;5046964;28;20029;-42
2022/07/19 10:02:35;;;;;;;2.20;1.20;;;;;;;32.92;21.59;94102.06;5048387;28;20044;-41
2022/07/19 10:05:02;;;;;;;3.20;1.35;;;;;;;33.06;22.21;94105.22;5048597;28;20112;-42
2022/07/19 10:07:28;;;;;;;4.07;1.50;;;;;;;33.10;22.59;94102.44;5043465;28;20506;-41
2022/07/19 10:09:54;;;;;;;2.70;1.35;;;;;;;32.93;22.54;94095.63;5029926;28;20062;-42
2022/07/19 10:12:21;;;;;;;8.80;2.17;;;;;;;32.46;22.30;94096.03;5044258;28;20021;-43
2022/07/19 10:14:48;;;;;;;1.90;1.40;;;;;;;32.09;24.49;94094.47;5047409;28;20025;-41
2022/07/19 10:17:34;;;;;;;2.08;1.63;;;;;;;31.76;23.99;94089.34;5048725;28;20079;-41
2022/07/19 10:20:00;;;;;;;2.15;1.42;;;;;;;31.96;23.71;94090.59;5032270;28;20403;-43
2022/07/19 10:22:26;;;;;;;1.52;1.42;;;;;;;31.81;24.57;94079.47;5028675;28;20021;-42
2022/07/19 10:24:53;;;;;;;3.90;1.70;;;;;;;31.20;25.12;94083.59;5030037;28;20402;-41
2022/07/19 10:27:40;;;;;;;1.35;1.25;;;;;;;30.26;24.86;94083.66;5029782;28;20059;-42
2022/07/19 10:30:11;;;;;;;3.08;1.70;;;;;;;29.53;25.30;94077.72;5029539;28;20032;-41
2022/07/19 10:32:47;;;;;;;1.95;1.55;;;;;;;29.19;26.48;94069.47;5029613;28;20102;-42
2022/07/19 10:35:29;;;;;;;1.40;1.30;;;;;;;29.39;28.12;94066.59;5034921;28;20060;-43
2022/07/19 10:38:01;;;;;;;1.67;1.30;;;;;;;29.68;24.34;94063.31;5042670;28;20033;-41
2022/07/19 10:40:56;;;;;;;1.38;1.27;;;;;;;29.67;27.82;94067.53;5039789;28;20505;-42
2022/07/19 10:43:22;;;;;;;1.42;1.20;;;;;;;29.89;27.70;94064.69;5044428;28;20059;-43
2022/07/19 10:45:56;;;;;;;1.80;1.67;;;;;;;30.11;26.39;94061.81;5049406;28;20111;-42
2022/07/19 10:48:53;;;;;;;2.38;1.38;;;;;;;30.37;25.70;94062.66;5049522;28;20055;-42
2022/07/19 10:51:33;;;;;;;4.30;1.77;;;;;;;30.72;25.34;94059.41;5053465;28;20124;-42
2022/07/19 10:54:03;;;;;;;2.45;1.55;;;;;;;31.30;27.29;94063.88;5041250;28;20024;-42
2022/07/19 10:56:37;;;;;;;1.85;1.40;;;;;;;31.40;24.74;94067.03;5047486;28;20029;-43
2022/07/19 10:59:08;;;;;;;1.27;1.17;;;;;;;31.25;25.67;94056.59;5040122;28;20032;-42
2022/07/19 11:01:34;;;;;;;2.83;1.40;;;;;;;30.72;24.74;94053.69;5042756;28;20035;-41
2022/07/19 11:04:21;;;;;;;1.30;1.20;;;;;;;30.40;25.06;94061.31;5039842;28;20057;-42
2022/07/19 11:06:46;;;;;;;1.33;1.10;;;;;;;29.59;25.54;94052.31;5049148;28;20052;-41
2022/07/19 11:09:12;;;;;;;2.90;1.42;;;;;;;28.88;27.35;94052.75;5048748;28;20410;-41
2022/07/19 11:11:37;;;;;;;2.03;1.20;;;;;;;28.32;27.49;94048.53;5043715;28;20032;-41
2022/07/19 11:14:04;;;;;;;3.25;1.50;;;;;;;28.21;29.14;94049.53;5049120;28;20032;-41
2022/07/19 11:16:29;;;;;;;2.10;1.65;;;;;;;28.42;28.60;94051.00;5049257;28;20046;-41
2022/07/19 11:19:05;;;;;;;3.85;1.67;;;;;;;28.17;29.26;94046.56;5041483;28;20406;-42
2022/07/19 11:21:36;;;;;;;1.30;1.20;;;;;;;28.63;30.44;94052.53;5028812;28;20042;-42
2022/07/19 11:24:03;;;;;;;1.55;1.33;;;;;;;29.02;28.65;94038.28;5028686;28;20030;-42
2022/07/19 11:26:36;;;;;;;4.38;1.75;;;;;;;28.80;28.71;94038.25;5034596;27;20033;-43
2022/07/19 11:29:01;;;;;;;1.40;1.30;;;;;;;28.48;28.23;94046.28;5037475;28;20021;-43
2022/07/19 11:31:27;;;;;;;1.63;1.52;;;;;;;27.99;28.19;94045.84;5037956;28;20508;-41
2022/07/19 11:33:56;;;;;;;3.00;1.52;;;;;;;27.64;29.82;94046.56;5037887;28;20025;-43
2022/07/19 11:36:21;;;;;;;;;;;;;;;27.47;30.31;94038.81;5039239;28;20023;-41
2022/07/19 11:38:49;;;;;;;1.90;1.40;;;;;;;27.30;29.62;94044.44;5042292;28;19999;-42
2022/07/19 11:41:20;;;;;;;3.38;1.40;;;;;;;27.54;30.60;94034.09;5036186;28;20056;-42
2022/07/19 11:44:02;;;;;;;2.38;1.77;;;;;;;28.16;27.93;94036.56;5048448;28;20029;-42
2022/07/19 11:46:39;;;;;;;1.73;1.45;;;;;;;28.24;27.44;94034.03;5042086;28;20025;-41
2022/07/19 11:49:07;;;;;;;2.10;1.40;;;;;;;28.62;28.78;94031.91;5047330;28;20029;-43
2022/07/19 11:51:33;;;;;;;1.98;1.48;;;;;;;28.53;27.79;94027.28;5048298;28;20021;-42
2022/07/19 11:54:00;;;;;;;2.47;1.88;;;;;;;28.25;28.02;94034.75;5048535;28;20021;-42
2022/07/19 11:56:31;;;;;;;2.75;1.88;;;;;;;27.76;28.89;94032.16;5048552;28;20100;-43